• Join FlightAware (Why Join?)
  • Login
  • US Flag 
09:51PM EDT


 

Airport Tracker/Info


-or-


 

Live Flight TrackerFlight Track Log ✈ AMF1062 ✈ 26-Apr-2013 ✈ KBOI - KSLC

Flight Track Log - Related Links

Times and Time Zones

All times are in EDT time to prevent confusion due to time zone crossing. See the AMF1062 flight status page for this flight to view local times or setup timezone preferences in your user account.

Time Position Orientation Groundspeed Altitude Reporting Facility
EDT Latitude Longitude Course Direction KTS MPH feet Rate Location/Type
07:08PM 43.5081 -116.2400 132° Southeast 190 219 5,200  Level Salt Lake Center
07:09PM 43.4764 -116.1744 124° Southeast 198 228 6,300 960 Climbing Salt Lake Center
07:10PM 43.4467 -116.1039 120° Southeast 202 232 7,200 960 Climbing Salt Lake Center
07:11PM 43.4158 -116.0331 121° Southeast 206 237 8,300 900 Climbing Salt Lake Center
07:12PM 43.3717 -115.9051 144° Southeast  Level FlightAware Approximate
07:12PM 43.3864 -115.9667 121° Southeast 210 242 9,100  Level Salt Lake Center
07:13PM 43.3311 -115.8466 132° Southeast  Level FlightAware Approximate
07:13PM 43.3542 -115.8900 120° Southeast 220 253 9,500  Level Salt Lake Center
07:14PM 43.3106 -115.8203 131° Southeast 231 266 9,500  Level Salt Lake Center
07:15PM 43.2656 -115.7514 132° Southeast 232 267 9,500 -60 Level Salt Lake Center
07:16PM 43.2256 -115.6861 130° Southeast 230 265 9,400 -60 Descending Salt Lake Center
07:17PM 43.1856 -115.6144 127° Southeast 227 261 9,400  Level Salt Lake Center
07:18PM 43.1450 -115.5419 127° Southeast 229 264 9,400  Level Salt Lake Center
07:19PM 43.1014 -115.4733 131° Southeast 227 261 9,400  Level Salt Lake Center
07:20PM 43.0622 -115.4089 130° Southeast 227 261 9,400  Level Salt Lake Center
07:21PM 43.0189 -115.3386 130° Southeast 233 268 9,500  Climbing Salt Lake Center
07:22PM 42.9786 -115.2681 128° Southeast 228 262 9,500  Level Salt Lake Center
07:23PM 42.9378 -115.1967 128° Southeast 227 261 9,500  Level Salt Lake Center
07:24PM 42.9008 -115.1311 128° Southeast 227 261 9,500  Level Salt Lake Center
07:25PM 42.8583 -115.0619 130° Southeast 228 262 9,500  Level Salt Lake Center
07:26PM 42.8153 -114.9931 130° Southeast 228 262 9,600  Climbing Salt Lake Center
07:27PM 42.7700 -114.9278 133° Southeast 228 262 9,500 -60 Descending Salt Lake Center
07:28PM 42.7256 -114.8606 132° Southeast 228 262 9,500  Level Salt Lake Center
07:29PM 42.6864 -114.7975 130° Southeast 227 261 9,600  Climbing Salt Lake Center
07:30PM 42.6428 -114.7275 130° Southeast 231 266 9,500 -60 Descending Salt Lake Center
07:31PM 42.6008 -114.6567 129° Southeast 231 266 9,500  Level Salt Lake Center
07:32PM 42.5547 -114.5903 133° Southeast 231 266 9,600  Climbing Salt Lake Center
07:33PM 42.5061 -114.5267 136° Southeast 230 265 9,600  Level Salt Lake Center
07:34PM 42.4683 -114.4528 125° Southeast 230 265 9,600 -60 Level Salt Lake Center
07:35PM 42.4436 -114.3747 113° Southeast 233 268 9,500 -60 Descending Salt Lake Center
07:36PM 42.4128 -114.2953 118° Southeast 230 265 9,500  Level Salt Lake Center
07:37PM 42.3867 -114.2111 113° Southeast 231 266 9,600  Climbing Salt Lake Center
07:38PM 42.3650 -114.1444 114° Southeast 231 266 9,600 -60 Level Salt Lake Center
07:40PM 42.3315 -114.0631 119° Southeast  Level FlightAware Approximate
07:45PM 42.1561 -113.6375 116° Southeast 229 264 9,500  Level Salt Lake Center
07:46PM 42.1353 -113.5578 109° East 227 261 9,500  Level Salt Lake Center
07:47PM 42.1368 -113.5431 115° Southeast  Level FlightAware Approximate
07:47PM 42.1156 -113.4772 108° East 226 260 9,500  Level Salt Lake Center
07:48PM 42.1097 -113.4684 116° Southeast  Level FlightAware Approximate
07:48PM 42.0956 -113.3983 109° East 225 259 9,600  Level Salt Lake Center
07:49PM 42.0825 -113.3939 116° Southeast  Level FlightAware Approximate
07:49PM 42.0739 -113.3197 110° East 225 259 9,600  Level Salt Lake Center
07:50PM 42.0553 -113.3194 116° Southeast  Level FlightAware Approximate
07:50PM 42.0467 -113.2253 111° Southeast 226 260 9,500  Level Salt Lake Center
07:51PM 42.0208 -113.1519 115° Southeast 223 257 9,600  Climbing Salt Lake Center
07:52PM 41.9772 -113.0919 134° Southeast 223 257 9,500  Descending Salt Lake Center
07:53PM 41.9289 -113.0419 142° Southeast 220 253 9,600  Climbing Salt Lake Center
07:54PM 41.8847 -112.9822 135° Southeast 222 255 9,500  Descending Salt Lake Center
07:55PM 41.8417 -112.9211 133° Southeast 224 258 9,600  Climbing Salt Lake Center
07:56PM 41.7986 -112.8606 134° Southeast 225 259 9,500 -60 Descending Salt Lake Center
07:57PM 41.7497 -112.7831 130° Southeast 226 260 9,500  Level Salt Lake Center
07:58PM 41.7053 -112.7211 134° Southeast 229 264 9,500  Level Salt Lake Center
07:59PM 41.6608 -112.6614 135° Southeast 228 262 9,500  Level Salt Lake Center
08:00PM 41.6378 -112.6222 128° Southeast 224 258 9,500  Level Salt Lake Center
08:00PM 41.6142 -112.6050 151° Southeast 226 260 9,500  Level Salt Lake Center
08:01PM 41.5939 -112.5711 129° Southeast 227 261 9,500 60 Level Salt Lake Center
08:01PM 41.5672 -112.5486 148° Southeast 226 260 9,600  Climbing Salt Lake Center
08:02PM 41.5522 -112.5219 127° Southeast 226 260 9,500  Descending Salt Lake Center
08:02PM 41.5197 -112.4939 147° Southeast 226 260 9,600  Climbing Salt Lake Center
08:03PM 41.5017 -112.4703 136° Southeast 228 262 9,500 -120 Descending Salt Lake Center
08:04PM 41.4619 -112.4586 168° South 226 260 9,500  Level Salt Lake Center
08:04PM 41.4353 -112.4383 150° Southeast 227 261 9,500 60 Level Salt Lake Center
08:05PM 41.3931 -112.4197 162° South 225 259 9,600  Climbing Salt Lake Center
08:05PM 41.3822 -112.4075 140° Southeast 224 258 9,500 -120 Descending Salt Lake Center
08:06PM 41.3361 -112.3861 161° South 225 259 9,500  Level Salt Lake Center
08:06PM 41.3244 -112.3756 146° Southeast 224 258 9,500  Level Salt Lake Center
08:07PM 41.2797 -112.3536 160° South 222 255 9,500  Level Salt Lake Center
08:07PM 41.2592 -112.3378 150° Southeast 225 259 9,500  Level Salt Lake Center
08:08PM 41.2222 -112.3194 160° South 226 260 9,500 60 Level Salt Lake Center
08:08PM 41.2033 -112.3053 151° Southeast 225 259 9,600 960 Climbing Salt Lake Center
08:09PM 41.1675 -112.2853 157° South 219 252 10,500 1,380 Climbing Salt Lake Center
08:09PM 41.1522 -112.2742 151° Southeast 198 228 11,000 480 Climbing Salt Lake Center
08:10PM 41.1194 -112.2539 155° Southeast 200 230 11,000  Level Salt Lake Center
08:10PM 41.1006 -112.2403 151° Southeast 213 245 11,000  Level Salt Lake Center
08:11PM 41.0647 -112.2197 157° South 218 251 11,000  Level Salt Lake Center
08:11PM 41.0444 -112.2053 152° Southeast 221 254 11,000  Level Salt Lake Center
08:12PM 40.9972 -112.1775 156° South 225 259 11,000  Level Salt Lake Center
08:12PM 40.9836 -112.1689 154° Southeast 225 259 11,000  Level Salt Lake Center
08:13PM 40.9419 -112.1428 155° Southeast 223 257 11,000  Level Salt Lake Center
08:13PM 40.9272 -112.1342 156° South 223 257 11,000  Level Salt Lake Center
08:14PM 40.8856 -112.1097 156° South 224 258 11,000  Level Salt Lake Center
08:15PM 40.8244 -112.1006 174° South 221 254 11,000 -360 Level Salt Lake Center
08:16PM 40.7639 -112.0911 173° South 219 252 10,300 -1,440 Descending Salt Lake Center
08:17PM 40.7078 -112.0675 162° South 223 257 8,100 -2,220 Descending Salt Lake Center
08:17PM 40.7028 -112.0317 100° East 209 241 7,200 -1,680 Descending Salt Lake Center
08:18PM 40.7111 -111.9914 75° East 168 193 6,400 -1,380 Descending Salt Lake Center
08:18PM 40.7228 -111.9908 North 136 157 5,800 -1,260 Descending Salt Lake Center
08:19PM 40.7464 -111.9919 358° North 127 146 5,100 -1,140 Descending Salt Lake Center
08:19PM 40.7581 -111.9958 346° North 125 144 4,700 -840 Descending Salt Lake Center
08:20PM 40.7803 -111.9958 360° North 123 142 4,300 -600 Descending Salt Lake Center
08:22PM 40.7833 -111.9667 146° Southeast  Level FlightAware Approximate